»·PEaware :: ASH5720 KPHX-KPSP

ASH5720 :: KPHX-KPSP

FLIGHT INFORMATION

Flight Status: Arrived
Operator:
Mesa Airlines
More flights by this operator :: More flights under this callsign
Pilot: Alex S. (7186)
Aircraft: CANADAIR CL-600 CRJ-900
(CRJ9)
More flights by this aircraft type
Origin: KPHX Phoenix Sky Harbor Intl
United States
Destination: KPSP Palm Springs Intl
United States
More flights between these airports :: More routes between these airports
Route: +BLH SBONO1
File this flight plan on PilotEdge
Remarks: PBN / D1 DOF / 180422 REG / N302SA EET / KZLA0019 OPR / AAL PER / D RMK / TCAS SIMBRIEF
Altitude:
(Current/Filed)
26,000ft
Speed:
(Current/Filed)
452kts
Departed: 22-Apr-18 11:25 AM
Arrived: 22-Apr-18 12:08 PM
Distance/Time
Traveled:
226nm/0:43
Distance/Time
To Go:
Arrived

Flight Plot

Page will automatically refresh every two minutes.

Flight plan parsing failed; only flown route is shown


Map Options




Map Legend


Flown Route
Filed Route
Departure Airport
Arrival Airport
Navaid (VOR, NDB)
Fix

Horizontal Profiles

Position Reports

Time Latitude Longitude Heading Altitude Ground
Speed
22-Apr-18 10:40 33.436877 -111.996020 269 1142ft 0kts
22-Apr-18 10:41 33.436877 -111.996020 269 1142ft 0kts
22-Apr-18 10:42 33.436877 -111.996020 269 1142ft 0kts
22-Apr-18 10:43 33.436877 -111.996020 269 1142ft 0kts
22-Apr-18 10:44 33.436877 -111.996020 269 1142ft 0kts
22-Apr-18 10:45 33.436877 -111.996020 269 1142ft 0kts
22-Apr-18 10:46 33.436877 -111.996020 269 1142ft 0kts
22-Apr-18 10:47 33.436877 -111.996020 269 1142ft 0kts
22-Apr-18 10:48 33.436877 -111.996020 269 1142ft 0kts
22-Apr-18 10:49 33.436877 -111.996020 269 1142ft 0kts
22-Apr-18 10:50 33.436877 -111.996020 269 1142ft 0kts
22-Apr-18 10:51 33.436877 -111.996020 269 1142ft 0kts
22-Apr-18 10:52 33.436877 -111.996020 269 1142ft 0kts
22-Apr-18 10:53 33.436877 -111.996020 269 1142ft 0kts
22-Apr-18 10:54 33.436877 -111.996020 269 1142ft 0kts
22-Apr-18 10:55 33.436877 -111.996020 269 1142ft 0kts
22-Apr-18 10:56 33.436877 -111.996020 269 1142ft 0kts
22-Apr-18 10:57 33.436877 -111.996020 269 1142ft 0kts
22-Apr-18 10:58 33.436877 -111.996020 269 1142ft 0kts
22-Apr-18 10:59 33.436877 -111.996020 269 1142ft 0kts
22-Apr-18 11:00 33.436877 -111.996020 269 1142ft 0kts
22-Apr-18 11:01 33.436877 -111.996020 269 1142ft 0kts
22-Apr-18 11:02 33.436877 -111.996020 269 1142ft 0kts
22-Apr-18 11:03 33.436877 -111.996020 269 1142ft 0kts
22-Apr-18 11:04 33.436877 -111.996020 269 1142ft 0kts
22-Apr-18 11:05 33.436877 -111.996020 269 1142ft 0kts
22-Apr-18 11:06 33.436877 -111.996020 269 1142ft 0kts
22-Apr-18 11:07 33.436877 -111.996020 269 1142ft 0kts
22-Apr-18 11:08 33.436877 -111.996020 269 1142ft 0kts
22-Apr-18 11:09 33.436877 -111.996020 269 1142ft 0kts
22-Apr-18 11:10 33.436877 -111.996020 269 1142ft 0kts
22-Apr-18 11:11 33.436882 -111.995440 269 1142ft 2kts
22-Apr-18 11:12 33.436883 -111.995212 269 1142ft 0kts
22-Apr-18 11:13 33.436883 -111.995214 269 1142ft 0kts
22-Apr-18 11:14 33.436883 -111.995214 269 1142ft 0kts
22-Apr-18 11:15 33.436883 -111.995216 269 1142ft 0kts
22-Apr-18 11:16 33.436883 -111.995225 269 1142ft 0kts
22-Apr-18 11:17 33.437662 -111.995653 358 1142ft 10kts
22-Apr-18 11:18 33.438987 -111.997602 269 1142ft 16kts
22-Apr-18 11:19 33.438997 -112.004662 269 1142ft 25kts
22-Apr-18 11:20 33.439004 -112.014305 269 1142ft 23kts
22-Apr-18 11:21 33.438995 -112.021429 269 1142ft 18kts
22-Apr-18 11:22 33.439003 -112.028764 270 1142ft 13kts
22-Apr-18 11:23 33.440838 -112.029446 75 1142ft 5kts
22-Apr-18 11:24 33.440860 -111.993262 89 2517ft 168kts
22-Apr-18 11:25 33.437934 -111.933545 94 5098ft 205kts
22-Apr-18 11:26 33.428422 -111.862711 132 8116ft 227kts
22-Apr-18 11:27 33.369184 -111.854001 206 11133ft 231kts
22-Apr-18 11:28 33.354636 -111.927222 285 13233ft 282kts
22-Apr-18 11:29 33.370154 -112.023738 277 15979ft 307kts
22-Apr-18 11:30 33.385529 -112.134551 278 17861ft 358kts
22-Apr-18 11:31 33.402399 -112.255603 278 20443ft 379kts
22-Apr-18 11:32 33.419983 -112.382697 278 22832ft 395kts
22-Apr-18 11:33 33.438285 -112.515067 278 25008ft 409kts
22-Apr-18 11:34 33.452314 -112.654814 271 25995ft 445kts
22-Apr-18 11:35 33.452561 -112.805886 272 26001ft 457kts
22-Apr-18 11:36 33.482627 -112.953506 283 25999ft 456kts
22-Apr-18 11:37 33.508676 -113.102409 280 25995ft 458kts
22-Apr-18 11:38 33.537003 -113.251930 281 25997ft 460kts
22-Apr-18 11:39 33.564318 -113.401708 281 25992ft 461kts
22-Apr-18 11:40 33.591702 -113.551772 281 25989ft 462kts
22-Apr-18 11:41 33.619766 -113.702460 281 25985ft 462kts
22-Apr-18 11:42 33.636200 -113.853712 265 26006ft 458kts
22-Apr-18 11:43 33.622769 -114.005964 263 25991ft 460kts
22-Apr-18 11:44 33.616056 -114.159834 269 25983ft 462kts
22-Apr-18 11:45 33.626814 -114.312537 279 25981ft 462kts
22-Apr-18 11:46 33.636484 -114.463953 267 25948ft 443kts
22-Apr-18 11:47 33.621038 -114.607355 255 24203ft 443kts
22-Apr-18 11:48 33.605083 -114.749774 276 23974ft 433kts
22-Apr-18 11:49 33.637279 -114.894813 292 23973ft 453kts
22-Apr-18 11:50 33.686169 -115.031820 290 23589ft 424kts
22-Apr-18 11:51 33.727187 -115.160598 291 20606ft 409kts
22-Apr-18 11:52 33.768180 -115.285729 291 17673ft 396kts
22-Apr-18 11:53 33.807722 -115.407288 291 15011ft 386kts
22-Apr-18 11:54 33.846440 -115.526855 291 13522ft 379kts
22-Apr-18 11:55 33.884175 -115.644362 291 12405ft 374kts
22-Apr-18 11:56 33.915972 -115.763109 274 11207ft 375kts
22-Apr-18 11:57 33.905869 -115.882526 264 10606ft 331kts
22-Apr-18 11:58 33.889639 -115.980964 229 8825ft 289kts
22-Apr-18 11:59 33.833980 -116.045966 222 7466ft 277kts
22-Apr-18 12:00 33.777393 -116.107935 222 6978ft 270kts
22-Apr-18 12:01 33.723818 -116.171583 242 6955ft 272kts
22-Apr-18 12:02 33.736646 -116.254590 292 5458ft 259kts
22-Apr-18 12:03 33.757546 -116.334168 275 3807ft 243kts
22-Apr-18 12:04 33.763903 -116.407089 275 2462ft 187kts
22-Apr-18 12:05 33.777999 -116.459901 300 1584ft 139kts
22-Apr-18 12:06 33.809144 -116.489239 323 872ft 151kts
22-Apr-18 12:07 33.833683 -116.511498 265 484ft 13kts
22-Apr-18 12:08 33.831482 -116.511443 143 484ft 16kts
22-Apr-18 12:09 33.826895 -116.507232 143 484ft 27kts
22-Apr-18 12:10 33.823708 -116.505288 144 484ft 12kts
22-Apr-18 12:11 33.821614 -116.506140 186 484ft 8kts
22-Apr-18 12:12 33.821020 -116.507035 314 484ft 0kts
22-Apr-18 12:13 33.821020 -116.507035 314 484ft 0kts
22-Apr-18 12:14 33.821020 -116.507035 314 484ft 0kts
22-Apr-18 12:15 33.821020 -116.507035 314 484ft 0kts
22-Apr-18 12:16 33.821020 -116.507035 314 484ft 0kts
22-Apr-18 12:17 33.821020 -116.507035 314 484ft 0kts
22-Apr-18 12:18 33.821020 -116.507035 314 484ft 0kts
22-Apr-18 12:19 33.821020 -116.507035 314 484ft 0kts
22-Apr-18 12:20 33.821020 -116.507035 314 484ft 0kts
22-Apr-18 12:21 33.821020 -116.507035 314 484ft 0kts

Navigation Log

Ident Type
Flight plan parsing failed, navigation log unavailable